sensor_id;sensor_type;location;lat;lon;timestamp;temperature;humidity
80132;SHT30;69442;51.442;10.564;2024-03-02T00:00:20;8.21;74.82
80132;SHT30;69442;51.442;10.564;2024-03-02T00:02:48;8.17;74.85
80132;SHT30;69442;51.442;10.564;2024-03-02T00:05:18;8.17;74.83
80132;SHT30;69442;51.442;10.564;2024-03-02T00:08:04;8.19;74.85
80132;SHT30;69442;51.442;10.564;2024-03-02T00:10:38;8.16;74.84
80132;SHT30;69442;51.442;10.564;2024-03-02T00:13:06;8.16;74.92
80132;SHT30;69442;51.442;10.564;2024-03-02T00:18:14;8.17;74.93
80132;SHT30;69442;51.442;10.564;2024-03-02T00:20:40;8.21;74.93
80132;SHT30;69442;51.442;10.564;2024-03-02T00:23:07;8.19;74.90
80132;SHT30;69442;51.442;10.564;2024-03-02T00:25:40;8.19;74.81
80132;SHT30;69442;51.442;10.564;2024-03-02T00:28:14;8.17;74.79
80132;SHT30;69442;51.442;10.564;2024-03-02T00:31:16;8.15;75.06
80132;SHT30;69442;51.442;10.564;2024-03-02T00:33:46;8.15;75.10
80132;SHT30;69442;51.442;10.564;2024-03-02T00:36:14;8.08;75.31
80132;SHT30;69442;51.442;10.564;2024-03-02T00:38:50;8.05;75.22
80132;SHT30;69442;51.442;10.564;2024-03-02T00:41:27;8.02;75.16
80132;SHT30;69442;51.442;10.564;2024-03-02T00:43:59;8.02;75.09
80132;SHT30;69442;51.442;10.564;2024-03-02T00:46:27;7.98;75.11
80132;SHT30;69442;51.442;10.564;2024-03-02T00:48:59;7.98;75.10
80132;SHT30;69442;51.442;10.564;2024-03-02T00:51:26;7.94;75.28
80132;SHT30;69442;51.442;10.564;2024-03-02T00:53:53;7.98;75.19
80132;SHT30;69442;51.442;10.564;2024-03-02T00:56:23;7.97;75.21
80132;SHT30;69442;51.442;10.564;2024-03-02T00:58:49;7.94;75.20
80132;SHT30;69442;51.442;10.564;2024-03-02T01:01:15;7.92;75.18
80132;SHT30;69442;51.442;10.564;2024-03-02T01:03:42;7.94;75.05
80132;SHT30;69442;51.442;10.564;2024-03-02T01:06:07;7.89;75.16
80132;SHT30;69442;51.442;10.564;2024-03-02T01:08:37;7.88;75.29
80132;SHT30;69442;51.442;10.564;2024-03-02T01:11:03;7.85;75.11
80132;SHT30;69442;51.442;10.564;2024-03-02T01:13:29;7.82;75.26
80132;SHT30;69442;51.442;10.564;2024-03-02T01:15:55;7.82;75.46
80132;SHT30;69442;51.442;10.564;2024-03-02T01:18:21;7.80;75.60
80132;SHT30;69442;51.442;10.564;2024-03-02T01:20:47;7.75;75.55
80132;SHT30;69442;51.442;10.564;2024-03-02T01:23:13;7.74;75.58
80132;SHT30;69442;51.442;10.564;2024-03-02T01:25:38;7.71;75.75
80132;SHT30;69442;51.442;10.564;2024-03-02T01:28:04;7.71;75.69
80132;SHT30;69442;51.442;10.564;2024-03-02T01:30:30;7.70;75.60
80132;SHT30;69442;51.442;10.564;2024-03-02T01:32:55;7.70;75.61
80132;SHT30;69442;51.442;10.564;2024-03-02T01:35:20;7.69;75.66
80132;SHT30;69442;51.442;10.564;2024-03-02T01:37:46;7.71;75.51
80132;SHT30;69442;51.442;10.564;2024-03-02T01:40:11;7.69;75.74
80132;SHT30;69442;51.442;10.564;2024-03-02T01:42:38;7.69;75.80
80132;SHT30;69442;51.442;10.564;2024-03-02T01:45:08;7.69;75.98
80132;SHT30;69442;51.442;10.564;2024-03-02T01:47:33;7.67;76.21
80132;SHT30;69442;51.442;10.564;2024-03-02T01:49:59;7.69;75.66
80132;SHT30;69442;51.442;10.564;2024-03-02T01:52:25;7.69;75.48
80132;SHT30;69442;51.442;10.564;2024-03-02T01:54:50;7.67;75.80
80132;SHT30;69442;51.442;10.564;2024-03-02T01:57:16;7.70;75.61
80132;SHT30;69442;51.442;10.564;2024-03-02T01:59:41;7.69;75.86
80132;SHT30;69442;51.442;10.564;2024-03-02T02:02:07;7.66;76.02
80132;SHT30;69442;51.442;10.564;2024-03-02T02:04:33;7.63;76.24
80132;SHT30;69442;51.442;10.564;2024-03-02T02:06:59;7.61;76.12
80132;SHT30;69442;51.442;10.564;2024-03-02T02:09:25;7.61;76.24
80132;SHT30;69442;51.442;10.564;2024-03-02T02:11:51;7.60;76.03
80132;SHT30;69442;51.442;10.564;2024-03-02T02:14:16;7.59;76.98
80132;SHT30;69442;51.442;10.564;2024-03-02T02:16:42;7.61;76.31
80132;SHT30;69442;51.442;10.564;2024-03-02T02:19:08;7.60;76.03
80132;SHT30;69442;51.442;10.564;2024-03-02T02:21:33;7.59;76.52
80132;SHT30;69442;51.442;10.564;2024-03-02T02:23:59;7.60;76.84
80132;SHT30;69442;51.442;10.564;2024-03-02T02:26:24;7.56;76.87
80132;SHT30;69442;51.442;10.564;2024-03-02T02:28:50;7.56;76.64
80132;SHT30;69442;51.442;10.564;2024-03-02T02:31:16;7.52;76.55
80132;SHT30;69442;51.442;10.564;2024-03-02T02:33:42;7.57;76.51
80132;SHT30;69442;51.442;10.564;2024-03-02T02:36:08;7.56;76.86
80132;SHT30;69442;51.442;10.564;2024-03-02T02:38:37;7.52;76.70
80132;SHT30;69442;51.442;10.564;2024-03-02T02:41:04;7.52;76.69
80132;SHT30;69442;51.442;10.564;2024-03-02T02:43:29;7.52;76.76
80132;SHT30;69442;51.442;10.564;2024-03-02T02:45:55;7.49;76.76
80132;SHT30;69442;51.442;10.564;2024-03-02T02:48:20;7.47;76.51
80132;SHT30;69442;51.442;10.564;2024-03-02T02:50:45;7.50;76.14
80132;SHT30;69442;51.442;10.564;2024-03-02T02:53:11;7.52;76.63
80132;SHT30;69442;51.442;10.564;2024-03-02T02:55:36;7.50;76.47
80132;SHT30;69442;51.442;10.564;2024-03-02T02:58:06;7.47;76.40
80132;SHT30;69442;51.442;10.564;2024-03-02T03:00:31;7.47;76.50
80132;SHT30;69442;51.442;10.564;2024-03-02T03:02:57;7.47;76.55
80132;SHT30;69442;51.442;10.564;2024-03-02T03:05:22;7.46;76.61
80132;SHT30;69442;51.442;10.564;2024-03-02T03:07:47;7.47;76.23
80132;SHT30;69442;51.442;10.564;2024-03-02T03:10:16;7.44;76.24
80132;SHT30;69442;51.442;10.564;2024-03-02T03:12:42;7.46;76.17
80132;SHT30;69442;51.442;10.564;2024-03-02T03:15:09;7.46;76.06
80132;SHT30;69442;51.442;10.564;2024-03-02T03:17:34;7.46;76.03
80132;SHT30;69442;51.442;10.564;2024-03-02T03:20:01;7.46;76.03
80132;SHT30;69442;51.442;10.564;2024-03-02T03:22:26;7.47;75.87
80132;SHT30;69442;51.442;10.564;2024-03-02T03:24:52;7.47;76.41
80132;SHT30;69442;51.442;10.564;2024-03-02T03:27:17;7.44;76.57
80132;SHT30;69442;51.442;10.564;2024-03-02T03:29:43;7.46;76.26
80132;SHT30;69442;51.442;10.564;2024-03-02T03:32:08;7.42;76.72
80132;SHT30;69442;51.442;10.564;2024-03-02T03:34:34;7.44;76.34
80132;SHT30;69442;51.442;10.564;2024-03-02T03:37:00;7.40;76.72
80132;SHT30;69442;51.442;10.564;2024-03-02T03:39:25;7.35;76.71
80132;SHT30;69442;51.442;10.564;2024-03-02T03:41:51;7.36;76.66
80132;SHT30;69442;51.442;10.564;2024-03-02T03:44:16;7.37;76.30
80132;SHT30;69442;51.442;10.564;2024-03-02T03:46:41;7.35;76.31
80132;SHT30;69442;51.442;10.564;2024-03-02T03:49:07;7.36;76.39
80132;SHT30;69442;51.442;10.564;2024-03-02T03:51:33;7.33;76.86
80132;SHT30;69442;51.442;10.564;2024-03-02T03:53:58;7.29;76.89
80132;SHT30;69442;51.442;10.564;2024-03-02T03:56:24;7.33;76.58
80132;SHT30;69442;51.442;10.564;2024-03-02T03:58:49;7.30;76.45
80132;SHT30;69442;51.442;10.564;2024-03-02T04:01:15;7.27;76.93
80132;SHT30;69442;51.442;10.564;2024-03-02T04:03:40;7.29;76.71
80132;SHT30;69442;51.442;10.564;2024-03-02T04:06:05;7.30;76.33
80132;SHT30;69442;51.442;10.564;2024-03-02T04:08:31;7.29;76.39
80132;SHT30;69442;51.442;10.564;2024-03-02T04:10:56;7.27;76.35
80132;SHT30;69442;51.442;10.564;2024-03-02T04:13:22;7.30;76.80
80132;SHT30;69442;51.442;10.564;2024-03-02T04:15:47;7.29;76.95
80132;SHT30;69442;51.442;10.564;2024-03-02T04:18:12;7.29;76.39
80132;SHT30;69442;51.442;10.564;2024-03-02T04:20:38;7.32;75.98
80132;SHT30;69442;51.442;10.564;2024-03-02T04:23:03;7.32;76.05
80132;SHT30;69442;51.442;10.564;2024-03-02T04:25:29;7.30;76.54
80132;SHT30;69442;51.442;10.564;2024-03-02T04:27:54;7.26;76.34
80132;SHT30;69442;51.442;10.564;2024-03-02T04:30:19;7.25;76.55
80132;SHT30;69442;51.442;10.564;2024-03-02T04:32:45;7.23;76.88
80132;SHT30;69442;51.442;10.564;2024-03-02T04:35:14;7.20;76.85
80132;SHT30;69442;51.442;10.564;2024-03-02T04:37:39;7.19;76.82
80132;SHT30;69442;51.442;10.564;2024-03-02T04:40:05;7.16;76.93
80132;SHT30;69442;51.442;10.564;2024-03-02T04:42:34;7.18;76.83
80132;SHT30;69442;51.442;10.564;2024-03-02T04:44:59;7.15;76.89
80132;SHT30;69442;51.442;10.564;2024-03-02T04:47:25;7.14;76.54
80132;SHT30;69442;51.442;10.564;2024-03-02T04:49:50;7.14;76.83
80132;SHT30;69442;51.442;10.564;2024-03-02T04:52:16;7.14;76.66
80132;SHT30;69442;51.442;10.564;2024-03-02T04:54:41;7.14;76.35
80132;SHT30;69442;51.442;10.564;2024-03-02T04:57:25;7.12;76.52
80132;SHT30;69442;51.442;10.564;2024-03-02T04:59:51;7.14;76.74
80132;SHT30;69442;51.442;10.564;2024-03-02T05:02:16;7.11;76.75
80132;SHT30;69442;51.442;10.564;2024-03-02T05:04:41;7.08;76.87
80132;SHT30;69442;51.442;10.564;2024-03-02T05:07:07;7.07;76.89
80132;SHT30;69442;51.442;10.564;2024-03-02T05:09:32;7.04;76.89
80132;SHT30;69442;51.442;10.564;2024-03-02T05:11:58;7.07;77.00
80132;SHT30;69442;51.442;10.564;2024-03-02T05:14:41;7.04;77.25
80132;SHT30;69442;51.442;10.564;2024-03-02T05:17:07;7.02;77.54
80132;SHT30;69442;51.442;10.564;2024-03-02T05:19:32;7.02;77.81
80132;SHT30;69442;51.442;10.564;2024-03-02T05:21:58;7.02;77.76
80132;SHT30;69442;51.442;10.564;2024-03-02T05:24:23;6.98;77.52
80132;SHT30;69442;51.442;10.564;2024-03-02T05:26:49;7.01;76.63
80132;SHT30;69442;51.442;10.564;2024-03-02T05:29:14;7.04;76.34
80132;SHT30;69442;51.442;10.564;2024-03-02T05:31:40;7.08;76.09
80132;SHT30;69442;51.442;10.564;2024-03-02T05:34:05;7.02;77.16
80132;SHT30;69442;51.442;10.564;2024-03-02T05:36:31;7.01;77.46
80132;SHT30;69442;51.442;10.564;2024-03-02T05:38:57;6.98;77.44
80132;SHT30;69442;51.442;10.564;2024-03-02T05:41:22;6.98;77.82
80132;SHT30;69442;51.442;10.564;2024-03-02T05:43:48;6.94;77.83
80132;SHT30;69442;51.442;10.564;2024-03-02T05:46:14;6.94;77.42
80132;SHT30;69442;51.442;10.564;2024-03-02T05:48:39;6.95;77.53
80132;SHT30;69442;51.442;10.564;2024-03-02T05:51:04;6.95;78.03
80132;SHT30;69442;51.442;10.564;2024-03-02T05:53:30;6.88;78.72
80132;SHT30;69442;51.442;10.564;2024-03-02T05:55:55;6.83;78.74
80132;SHT30;69442;51.442;10.564;2024-03-02T05:58:21;6.85;78.40
80132;SHT30;69442;51.442;10.564;2024-03-02T06:00:59;6.85;77.15
80132;SHT30;69442;51.442;10.564;2024-03-02T06:03:24;6.92;76.61
80132;SHT30;69442;51.442;10.564;2024-03-02T06:05:50;6.94;76.60
80132;SHT30;69442;51.442;10.564;2024-03-02T06:08:16;6.91;77.47
80132;SHT30;69442;51.442;10.564;2024-03-02T06:10:41;6.87;77.96
80132;SHT30;69442;51.442;10.564;2024-03-02T06:13:07;6.87;77.53
80132;SHT30;69442;51.442;10.564;2024-03-02T06:15:32;6.88;76.90
80132;SHT30;69442;51.442;10.564;2024-03-02T06:17:58;6.90;76.70
80132;SHT30;69442;51.442;10.564;2024-03-02T06:20:23;6.90;78.31
80132;SHT30;69442;51.442;10.564;2024-03-02T06:22:49;6.87;78.82
80132;SHT30;69442;51.442;10.564;2024-03-02T06:25:14;6.85;78.28
80132;SHT30;69442;51.442;10.564;2024-03-02T06:27:40;6.90;79.71
80132;SHT30;69442;51.442;10.564;2024-03-02T06:30:05;6.87;79.29
80132;SHT30;69442;51.442;10.564;2024-03-02T06:32:31;6.84;79.91
80132;SHT30;69442;51.442;10.564;2024-03-02T06:34:56;6.83;80.19
80132;SHT30;69442;51.442;10.564;2024-03-02T06:37:22;6.79;79.26
80132;SHT30;69442;51.442;10.564;2024-03-02T06:39:47;6.81;77.96
80132;SHT30;69442;51.442;10.564;2024-03-02T06:42:12;6.83;78.20
80132;SHT30;69442;51.442;10.564;2024-03-02T06:44:38;6.81;77.62
80132;SHT30;69442;51.442;10.564;2024-03-02T06:47:03;6.83;78.25
80132;SHT30;69442;51.442;10.564;2024-03-02T06:49:29;6.81;78.92
80132;SHT30;69442;51.442;10.564;2024-03-02T06:51:55;6.77;79.21
80132;SHT30;69442;51.442;10.564;2024-03-02T06:54:20;6.76;79.23
80132;SHT30;69442;51.442;10.564;2024-03-02T06:56:46;6.72;79.23
80132;SHT30;69442;51.442;10.564;2024-03-02T06:59:11;6.73;79.44
80132;SHT30;69442;51.442;10.564;2024-03-02T07:01:37;6.70;79.57
80132;SHT30;69442;51.442;10.564;2024-03-02T07:04:02;6.73;79.57
80132;SHT30;69442;51.442;10.564;2024-03-02T07:06:32;6.70;79.97
80132;SHT30;69442;51.442;10.564;2024-03-02T07:08:57;6.64;80.31
80132;SHT30;69442;51.442;10.564;2024-03-02T07:11:22;6.66;80.36
80132;SHT30;69442;51.442;10.564;2024-03-02T07:13:48;6.74;80.43
80132;SHT30;69442;51.442;10.564;2024-03-02T07:16:13;6.80;79.99
80132;SHT30;69442;51.442;10.564;2024-03-02T07:18:54;6.80;79.44
80132;SHT30;69442;51.442;10.564;2024-03-02T07:21:20;6.83;79.01
80132;SHT30;69442;51.442;10.564;2024-03-02T07:23:47;6.87;78.75
80132;SHT30;69442;51.442;10.564;2024-03-02T07:26:13;6.90;79.64
80132;SHT30;69442;51.442;10.564;2024-03-02T07:28:40;6.94;78.91
80132;SHT30;69442;51.442;10.564;2024-03-02T07:31:06;6.97;79.76
80132;SHT30;69442;51.442;10.564;2024-03-02T07:33:32;6.99;79.96
80132;SHT30;69442;51.442;10.564;2024-03-02T07:35:58;7.05;80.46
80132;SHT30;69442;51.442;10.564;2024-03-02T07:38:28;7.04;80.28
80132;SHT30;69442;51.442;10.564;2024-03-02T07:40:53;7.11;80.58
80132;SHT30;69442;51.442;10.564;2024-03-02T07:43:19;7.15;80.88
80132;SHT30;69442;51.442;10.564;2024-03-02T07:45:48;7.20;81.06
80132;SHT30;69442;51.442;10.564;2024-03-02T07:48:14;7.25;82.89
80132;SHT30;69442;51.442;10.564;2024-03-02T07:50:40;7.29;82.67
80132;SHT30;69442;51.442;10.564;2024-03-02T07:53:05;7.36;84.03
80132;SHT30;69442;51.442;10.564;2024-03-02T07:55:33;7.43;84.06
80132;SHT30;69442;51.442;10.564;2024-03-02T07:57:58;7.50;86.51
80132;SHT30;69442;51.442;10.564;2024-03-02T08:00:24;7.49;84.23
80132;SHT30;69442;51.442;10.564;2024-03-02T08:02:51;7.54;82.96
80132;SHT30;69442;51.442;10.564;2024-03-02T08:05:17;7.54;80.32
80132;SHT30;69442;51.442;10.564;2024-03-02T08:07:44;7.64;81.93
80132;SHT30;69442;51.442;10.564;2024-03-02T08:10:10;7.61;81.29
80132;SHT30;69442;51.442;10.564;2024-03-02T08:12:35;7.67;81.33
80132;SHT30;69442;51.442;10.564;2024-03-02T08:15:01;7.74;80.87
80132;SHT30;69442;51.442;10.564;2024-03-02T08:17:26;7.73;80.78
80132;SHT30;69442;51.442;10.564;2024-03-02T08:19:52;7.80;80.55
80132;SHT30;69442;51.442;10.564;2024-03-02T08:22:18;7.81;80.36
80132;SHT30;69442;51.442;10.564;2024-03-02T08:24:43;7.80;80.29
80132;SHT30;69442;51.442;10.564;2024-03-02T08:27:08;7.85;80.09
80132;SHT30;69442;51.442;10.564;2024-03-02T08:29:34;7.85;80.18
80132;SHT30;69442;51.442;10.564;2024-03-02T08:32:00;7.91;80.17
80132;SHT30;69442;51.442;10.564;2024-03-02T08:34:25;7.94;80.09
80132;SHT30;69442;51.442;10.564;2024-03-02T08:36:51;7.97;80.13
80132;SHT30;69442;51.442;10.564;2024-03-02T08:39:17;8.02;79.21
80132;SHT30;69442;51.442;10.564;2024-03-02T08:41:44;8.05;78.39
80132;SHT30;69442;51.442;10.564;2024-03-02T08:44:10;8.12;78.42
80132;SHT30;69442;51.442;10.564;2024-03-02T08:46:36;8.17;78.12
80132;SHT30;69442;51.442;10.564;2024-03-02T08:49:01;8.19;77.98
80132;SHT30;69442;51.442;10.564;2024-03-02T08:51:27;8.22;78.44
80132;SHT30;69442;51.442;10.564;2024-03-02T08:53:52;8.28;77.74
80132;SHT30;69442;51.442;10.564;2024-03-02T08:56:18;8.29;77.29
80132;SHT30;69442;51.442;10.564;2024-03-02T08:58:43;8.34;77.45
80132;SHT30;69442;51.442;10.564;2024-03-02T09:01:10;8.39;77.09
80132;SHT30;69442;51.442;10.564;2024-03-02T09:03:36;8.39;76.92
80132;SHT30;69442;51.442;10.564;2024-03-02T09:06:02;8.43;77.25
80132;SHT30;69442;51.442;10.564;2024-03-02T09:08:28;8.46;78.90
80132;SHT30;69442;51.442;10.564;2024-03-02T09:10:53;8.49;78.42
80132;SHT30;69442;51.442;10.564;2024-03-02T09:13:19;8.53;79.33
80132;SHT30;69442;51.442;10.564;2024-03-02T09:15:44;8.57;79.56
80132;SHT30;69442;51.442;10.564;2024-03-02T09:18:10;8.64;79.61
80132;SHT30;69442;51.442;10.564;2024-03-02T09:20:36;8.70;79.26
80132;SHT30;69442;51.442;10.564;2024-03-02T09:23:01;8.75;79.13
80132;SHT30;69442;51.442;10.564;2024-03-02T09:25:26;8.81;79.58
80132;SHT30;69442;51.442;10.564;2024-03-02T09:27:52;8.87;79.05
80132;SHT30;69442;51.442;10.564;2024-03-02T09:30:17;8.89;78.53
80132;SHT30;69442;51.442;10.564;2024-03-02T09:32:43;9.02;79.53
80132;SHT30;69442;51.442;10.564;2024-03-02T09:35:08;9.11;78.56
80132;SHT30;69442;51.442;10.564;2024-03-02T09:37:34;9.22;78.51
80132;SHT30;69442;51.442;10.564;2024-03-02T09:40:01;9.30;77.76
80132;SHT30;69442;51.442;10.564;2024-03-02T09:42:26;9.37;78.41
80132;SHT30;69442;51.442;10.564;2024-03-02T09:44:52;9.46;77.49
80132;SHT30;69442;51.442;10.564;2024-03-02T09:47:18;9.52;76.87
80132;SHT30;69442;51.442;10.564;2024-03-02T09:49:43;9.71;77.37
80132;SHT30;69442;51.442;10.564;2024-03-02T09:52:10;9.84;76.77
80132;SHT30;69442;51.442;10.564;2024-03-02T09:54:35;9.92;76.29
80132;SHT30;69442;51.442;10.564;2024-03-02T09:57:01;10.02;76.72
80132;SHT30;69442;51.442;10.564;2024-03-02T09:59:27;10.09;75.89
80132;SHT30;69442;51.442;10.564;2024-03-02T10:02:01;10.24;74.99
80132;SHT30;69442;51.442;10.564;2024-03-02T10:04:31;10.32;74.58
80132;SHT30;69442;51.442;10.564;2024-03-02T10:07:16;10.46;74.48
80132;SHT30;69442;51.442;10.564;2024-03-02T10:09:46;10.54;74.81
80132;SHT30;69442;51.442;10.564;2024-03-02T10:12:13;10.58;74.21
80132;SHT30;69442;51.442;10.564;2024-03-02T10:14:40;10.67;73.25
80132;SHT30;69442;51.442;10.564;2024-03-02T10:17:10;10.79;72.06
80132;SHT30;69442;51.442;10.564;2024-03-02T10:19:36;10.86;71.95
80132;SHT30;69442;51.442;10.564;2024-03-02T10:22:03;10.93;71.59
80132;SHT30;69442;51.442;10.564;2024-03-02T10:24:41;10.96;71.56
80132;SHT30;69442;51.442;10.564;2024-03-02T10:27:15;10.98;71.77
80132;SHT30;69442;51.442;10.564;2024-03-02T10:29:41;11.07;71.84
80132;SHT30;69442;51.442;10.564;2024-03-02T10:32:10;11.12;70.95
80132;SHT30;69442;51.442;10.564;2024-03-02T10:34:36;11.23;69.71
80132;SHT30;69442;51.442;10.564;2024-03-02T10:37:03;11.20;69.77
80132;SHT30;69442;51.442;10.564;2024-03-02T10:39:28;11.28;69.27
80132;SHT30;69442;51.442;10.564;2024-03-02T10:41:55;11.38;68.66
80132;SHT30;69442;51.442;10.564;2024-03-02T10:44:22;11.34;71.21
80132;SHT30;69442;51.442;10.564;2024-03-02T10:46:49;11.34;70.76
80132;SHT30;69442;51.442;10.564;2024-03-02T10:49:16;11.45;68.59
80132;SHT30;69442;51.442;10.564;2024-03-02T10:51:42;11.52;69.21
80132;SHT30;69442;51.442;10.564;2024-03-02T10:54:07;11.55;68.56
80132;SHT30;69442;51.442;10.564;2024-03-02T10:56:34;11.65;67.96
80132;SHT30;69442;51.442;10.564;2024-03-02T11:01:39;11.77;67.15
80132;SHT30;69442;51.442;10.564;2024-03-02T11:04:08;11.78;70.21
80132;SHT30;69442;51.442;10.564;2024-03-02T11:06:35;11.85;69.57
80132;SHT30;69442;51.442;10.564;2024-03-02T11:09:07;11.90;68.35
80132;SHT30;69442;51.442;10.564;2024-03-02T11:11:43;11.97;68.40
80132;SHT30;69442;51.442;10.564;2024-03-02T11:14:13;12.03;67.72
80132;SHT30;69442;51.442;10.564;2024-03-02T11:16:39;12.16;66.49
80132;SHT30;69442;51.442;10.564;2024-03-02T11:19:08;12.17;66.50
80132;SHT30;69442;51.442;10.564;2024-03-02T11:21:35;12.23;70.14
80132;SHT30;69442;51.442;10.564;2024-03-02T11:26:46;12.33;67.64
80132;SHT30;69442;51.442;10.564;2024-03-02T11:32:05;12.37;67.89
80132;SHT30;69442;51.442;10.564;2024-03-02T11:34:32;12.41;67.49
80132;SHT30;69442;51.442;10.564;2024-03-02T11:36:58;12.47;69.05
80132;SHT30;69442;51.442;10.564;2024-03-02T11:39:26;12.52;67.70
80132;SHT30;69442;51.442;10.564;2024-03-02T11:41:52;12.55;67.30
80132;SHT30;69442;51.442;10.564;2024-03-02T11:44:17;12.58;68.76
80132;SHT30;69442;51.442;10.564;2024-03-02T11:47:05;12.61;66.61
80132;SHT30;69442;51.442;10.564;2024-03-02T11:49:48;12.67;65.77
80132;SHT30;69442;51.442;10.564;2024-03-02T11:52:15;12.72;63.78
80132;SHT30;69442;51.442;10.564;2024-03-02T11:54:44;12.72;63.98
80132;SHT30;69442;51.442;10.564;2024-03-02T11:57:20;12.79;63.06
80132;SHT30;69442;51.442;10.564;2024-03-02T11:59:48;12.84;63.33
80132;SHT30;69442;51.442;10.564;2024-03-02T12:02:23;12.91;62.86
80132;SHT30;69442;51.442;10.564;2024-03-02T12:04:49;12.91;62.25
80132;SHT30;69442;51.442;10.564;2024-03-02T12:07:19;12.91;62.09
80132;SHT30;69442;51.442;10.564;2024-03-02T12:09:49;12.95;62.39
80132;SHT30;69442;51.442;10.564;2024-03-02T12:12:24;12.96;62.08
80132;SHT30;69442;51.442;10.564;2024-03-02T12:14:51;12.99;62.38
80132;SHT30;69442;51.442;10.564;2024-03-02T12:17:17;13.02;62.13
80132;SHT30;69442;51.442;10.564;2024-03-02T12:19:42;13.09;62.38
80132;SHT30;69442;51.442;10.564;2024-03-02T12:22:07;13.12;62.57
80132;SHT30;69442;51.442;10.564;2024-03-02T12:24:33;13.12;62.04
80132;SHT30;69442;51.442;10.564;2024-03-02T12:26:58;13.17;62.76
80132;SHT30;69442;51.442;10.564;2024-03-02T12:29:24;13.23;62.29
80132;SHT30;69442;51.442;10.564;2024-03-02T12:31:51;13.27;63.55
80132;SHT30;69442;51.442;10.564;2024-03-02T12:34:18;13.36;60.96
80132;SHT30;69442;51.442;10.564;2024-03-02T12:36:45;13.41;60.44
80132;SHT30;69442;51.442;10.564;2024-03-02T12:39:13;13.47;60.34
80132;SHT30;69442;51.442;10.564;2024-03-02T12:41:39;13.53;60.31
80132;SHT30;69442;51.442;10.564;2024-03-02T12:44:05;13.58;59.90
80132;SHT30;69442;51.442;10.564;2024-03-02T12:46:34;13.61;60.61
80132;SHT30;69442;51.442;10.564;2024-03-02T12:49:11;13.66;60.86
80132;SHT30;69442;51.442;10.564;2024-03-02T12:51:40;13.65;60.28
80132;SHT30;69442;51.442;10.564;2024-03-02T12:54:10;13.69;60.71
80132;SHT30;69442;51.442;10.564;2024-03-02T12:56:40;13.69;60.62
80132;SHT30;69442;51.442;10.564;2024-03-02T12:59:17;13.69;60.16
80132;SHT30;69442;51.442;10.564;2024-03-02T13:01:55;13.71;59.98
80132;SHT30;69442;51.442;10.564;2024-03-02T13:04:27;13.73;60.81
80132;SHT30;69442;51.442;10.564;2024-03-02T13:06:56;13.73;60.65
80132;SHT30;69442;51.442;10.564;2024-03-02T13:09:23;13.71;60.57
80132;SHT30;69442;51.442;10.564;2024-03-02T13:11:49;13.75;60.62
80132;SHT30;69442;51.442;10.564;2024-03-02T13:14:16;13.73;60.27
80132;SHT30;69442;51.442;10.564;2024-03-02T13:16:42;13.81;60.60
80132;SHT30;69442;51.442;10.564;2024-03-02T13:19:08;13.86;60.33
80132;SHT30;69442;51.442;10.564;2024-03-02T13:21:34;13.87;60.71
80132;SHT30;69442;51.442;10.564;2024-03-02T13:24:00;13.89;60.94
80132;SHT30;69442;51.442;10.564;2024-03-02T13:26:26;13.93;60.47
80132;SHT30;69442;51.442;10.564;2024-03-02T13:28:52;14.00;61.56
80132;SHT30;69442;51.442;10.564;2024-03-02T13:31:18;13.96;61.74
80132;SHT30;69442;51.442;10.564;2024-03-02T13:33:43;14.00;61.29
80132;SHT30;69442;51.442;10.564;2024-03-02T13:36:09;14.03;61.33
80132;SHT30;69442;51.442;10.564;2024-03-02T13:38:34;14.05;61.70
80132;SHT30;69442;51.442;10.564;2024-03-02T13:41:00;14.10;62.03
80132;SHT30;69442;51.442;10.564;2024-03-02T13:43:27;14.13;61.72
80132;SHT30;69442;51.442;10.564;2024-03-02T13:45:52;14.14;61.13
80132;SHT30;69442;51.442;10.564;2024-03-02T13:48:18;14.18;61.30
80132;SHT30;69442;51.442;10.564;2024-03-02T13:50:44;14.21;60.88
80132;SHT30;69442;51.442;10.564;2024-03-02T13:53:10;14.27;60.80
80132;SHT30;69442;51.442;10.564;2024-03-02T13:55:37;14.30;61.28
80132;SHT30;69442;51.442;10.564;2024-03-02T13:58:03;14.31;60.86
80132;SHT30;69442;51.442;10.564;2024-03-02T14:00:28;14.35;60.57
80132;SHT30;69442;51.442;10.564;2024-03-02T14:02:55;14.34;60.18
80132;SHT30;69442;51.442;10.564;2024-03-02T14:05:20;14.34;60.53
80132;SHT30;69442;51.442;10.564;2024-03-02T14:07:45;14.38;60.35
80132;SHT30;69442;51.442;10.564;2024-03-02T14:10:11;14.31;60.35
80132;SHT30;69442;51.442;10.564;2024-03-02T14:12:37;14.26;60.04
80132;SHT30;69442;51.442;10.564;2024-03-02T14:15:03;14.17;60.06
80132;SHT30;69442;51.442;10.564;2024-03-02T14:17:29;14.14;59.69
80132;SHT30;69442;51.442;10.564;2024-03-02T14:19:57;14.16;59.74
80132;SHT30;69442;51.442;10.564;2024-03-02T14:22:24;14.12;59.23
80132;SHT30;69442;51.442;10.564;2024-03-02T14:24:49;14.17;59.44
80132;SHT30;69442;51.442;10.564;2024-03-02T14:27:15;14.17;59.52
80132;SHT30;69442;51.442;10.564;2024-03-02T14:29:42;14.17;59.32
80132;SHT30;69442;51.442;10.564;2024-03-02T14:32:07;14.12;58.25
80132;SHT30;69442;51.442;10.564;2024-03-02T14:34:33;14.10;58.77
80132;SHT30;69442;51.442;10.564;2024-03-02T14:36:59;14.07;58.32
80132;SHT30;69442;51.442;10.564;2024-03-02T14:39:25;14.05;58.40
80132;SHT30;69442;51.442;10.564;2024-03-02T14:41:51;14.09;58.38
80132;SHT30;69442;51.442;10.564;2024-03-02T14:44:16;14.05;57.68
80132;SHT30;69442;51.442;10.564;2024-03-02T14:46:43;14.05;57.89
80132;SHT30;69442;51.442;10.564;2024-03-02T14:49:08;14.00;57.71
80132;SHT30;69442;51.442;10.564;2024-03-02T14:51:35;14.02;57.82
80132;SHT30;69442;51.442;10.564;2024-03-02T14:54:01;13.96;57.35
80132;SHT30;69442;51.442;10.564;2024-03-02T14:56:26;13.98;57.57
80132;SHT30;69442;51.442;10.564;2024-03-02T14:58:52;13.95;57.27
80132;SHT30;69442;51.442;10.564;2024-03-02T15:01:18;13.98;57.46
80132;SHT30;69442;51.442;10.564;2024-03-02T15:03:46;14.00;57.79
80132;SHT30;69442;51.442;10.564;2024-03-02T15:06:11;13.92;57.08
80132;SHT30;69442;51.442;10.564;2024-03-02T15:08:37;13.87;57.12
80132;SHT30;69442;51.442;10.564;2024-03-02T15:11:02;13.81;58.02
80132;SHT30;69442;51.442;10.564;2024-03-02T15:13:29;13.79;58.39
80132;SHT30;69442;51.442;10.564;2024-03-02T15:15:54;13.78;58.25
80132;SHT30;69442;51.442;10.564;2024-03-02T15:18:19;13.73;58.83
80132;SHT30;69442;51.442;10.564;2024-03-02T15:20:45;13.69;58.83
80132;SHT30;69442;51.442;10.564;2024-03-02T15:23:10;13.61;58.91
80132;SHT30;69442;51.442;10.564;2024-03-02T15:25:36;13.57;59.15
80132;SHT30;69442;51.442;10.564;2024-03-02T15:28:01;13.48;59.35
80132;SHT30;69442;51.442;10.564;2024-03-02T15:30:27;13.41;59.79
80132;SHT30;69442;51.442;10.564;2024-03-02T15:32:52;13.37;60.47